Terminal Aerodrome Forecast
Issued by NWS Grand Forks, ND

Home | Current Version | Previous Version | Graphics & Text | Print | Product List | Glossary On
Versions: 1 2 3 4 5 6 7 8 9 10 11 12 13 14 15
000
FTUS43 KFGF 202300
TAFFAR
TAF
KFAR 202325Z 2100/2124 21009KT P6SM SCT250
     FM210300 24012KT P6SM BKN120
     FM210600 28010KT P6SM SCT050
     FM211500 33019G26KT P6SM BKN030=

USA.gov is the U.S. government's official web portal to all federal, state and local government web resources and services.